createdAt,value
2022-08-21T00:01:04.534Z,19.10
2022-08-21T00:03:35.625Z,19.00
2022-08-21T00:06:03.958Z,19.00
2022-08-21T00:08:32.100Z,19.00
2022-08-21T00:11:00.620Z,19.00
2022-08-21T00:13:30.121Z,19.00
2022-08-21T00:15:58.422Z,19.00
2022-08-21T00:18:26.815Z,18.90
2022-08-21T00:20:55.029Z,18.90
2022-08-21T00:23:23.776Z,18.90
2022-08-21T00:25:53.375Z,18.80
2022-08-21T00:28:22.785Z,18.90
2022-08-21T00:30:52.312Z,18.80
2022-08-21T00:33:20.847Z,18.80
2022-08-21T00:35:51.168Z,18.80
2022-08-21T00:38:19.571Z,18.80
2022-08-21T00:40:54.047Z,18.80
2022-08-21T00:43:24.953Z,18.70
2022-08-21T00:45:55.485Z,18.70
2022-08-21T00:48:24.739Z,18.70
2022-08-21T00:50:59.260Z,18.70
2022-08-21T00:53:28.837Z,18.70
2022-08-21T00:55:57.751Z,18.60
2022-08-21T00:58:28.459Z,18.60
2022-08-21T01:00:59.083Z,18.60
2022-08-21T01:03:27.747Z,18.60
2022-08-21T01:09:48.097Z,18.50
2022-08-21T01:12:17.229Z,18.50
2022-08-21T01:14:46.437Z,18.50
2022-08-21T01:17:16.939Z,18.40
2022-08-21T01:19:45.346Z,18.40
2022-08-21T01:22:15.279Z,18.40
2022-08-21T01:24:43.378Z,18.40
2022-08-21T01:27:11.795Z,18.40
2022-08-21T01:29:46.733Z,18.40
2022-08-21T01:32:17.689Z,18.40
2022-08-21T01:34:48.422Z,18.30
2022-08-21T01:37:20.211Z,18.30
2022-08-21T01:39:49.370Z,18.40
2022-08-21T01:42:17.582Z,18.30
2022-08-21T01:44:46.539Z,18.30
2022-08-21T01:47:17.562Z,18.30
2022-08-21T01:49:47.564Z,18.30
2022-08-21T01:52:17.814Z,18.20
2022-08-21T01:54:46.192Z,18.20
2022-08-21T01:57:26.158Z,18.20
2022-08-21T01:59:54.574Z,18.10
2022-08-21T02:02:22.708Z,18.20
2022-08-21T02:04:50.800Z,18.10
2022-08-21T02:07:20.808Z,18.10
2022-08-21T02:09:48.889Z,18.10
2022-08-21T02:12:16.990Z,18.10
2022-08-21T02:14:45.025Z,18.10
2022-08-21T02:17:13.247Z,18.10
2022-08-21T02:19:41.622Z,18.00
2022-08-21T02:22:10.234Z,18.00
2022-08-21T02:25:33.339Z,18.00
2022-08-21T02:28:06.335Z,18.00
2022-08-21T02:30:40.972Z,17.90
2022-08-21T02:33:10.889Z,17.90
2022-08-21T02:35:39.537Z,17.90
2022-08-21T02:38:12.987Z,17.90
2022-08-21T02:40:48.044Z,17.90
2022-08-21T02:43:19.015Z,17.90
2022-08-21T02:45:53.058Z,17.90
2022-08-21T02:48:25.959Z,17.90
2022-08-21T02:50:57.531Z,17.80
2022-08-21T02:53:26.446Z,17.80
2022-08-21T02:55:55.643Z,17.80
2022-08-21T02:58:28.545Z,17.80
2022-08-21T03:00:56.658Z,17.80
2022-08-21T03:03:24.860Z,17.80
2022-08-21T03:05:59.591Z,17.70
2022-08-21T03:08:27.983Z,17.80
2022-08-21T03:10:56.650Z,17.70
2022-08-21T03:13:26.092Z,17.70
2022-08-21T03:15:54.216Z,17.70
2022-08-21T03:18:22.770Z,17.70
2022-08-21T03:20:51.411Z,17.70
2022-08-21T03:23:20.004Z,17.60
2022-08-21T03:25:49.441Z,17.60
2022-08-21T03:28:20.366Z,17.60
2022-08-21T03:30:51.896Z,17.70
2022-08-21T03:33:23.364Z,17.70
2022-08-21T03:35:58.955Z,17.70
2022-08-21T03:38:28.317Z,17.60
2022-08-21T03:40:56.554Z,17.60
2022-08-21T03:43:24.919Z,17.60
2022-08-21T03:45:57.159Z,17.60
2022-08-21T03:48:25.782Z,17.60
2022-08-21T03:50:55.793Z,17.60
2022-08-21T03:53:24.387Z,17.60
2022-08-21T03:55:54.301Z,17.60
2022-08-21T03:58:25.213Z,17.50
2022-08-21T04:01:00.847Z,17.50
2022-08-21T04:03:30.594Z,17.50
2022-08-21T04:05:58.627Z,17.50
2022-08-21T04:08:26.848Z,17.50
2022-08-21T04:10:57.371Z,17.50
2022-08-21T04:13:25.741Z,17.50
2022-08-21T04:15:55.219Z,17.50
2022-08-21T04:18:23.432Z,17.50
2022-08-21T04:20:54.122Z,17.40
2022-08-21T04:23:24.180Z,17.50
2022-08-21T04:25:53.102Z,17.40
2022-08-21T04:28:21.592Z,17.40
2022-08-21T04:30:53.195Z,17.40
2022-08-21T04:33:24.410Z,17.40
2022-08-21T04:35:52.828Z,17.40
2022-08-21T04:38:22.294Z,17.40
2022-08-21T04:40:51.184Z,17.30
2022-08-21T04:43:20.397Z,17.30
2022-08-21T04:45:50.517Z,17.30
2022-08-21T04:48:22.024Z,17.30
2022-08-21T04:50:55.455Z,17.30
2022-08-21T04:53:28.454Z,17.30
2022-08-21T04:55:59.987Z,17.30
2022-08-21T04:58:29.234Z,17.30
2022-08-21T05:01:00.313Z,17.20
2022-08-21T05:03:29.371Z,17.30
2022-08-21T05:05:59.211Z,17.20
2022-08-21T05:08:29.918Z,17.20
2022-08-21T05:11:00.668Z,17.20
2022-08-21T05:13:34.362Z,17.20
2022-08-21T05:16:04.626Z,17.30
2022-08-21T05:18:33.093Z,17.20
2022-08-21T05:21:03.549Z,17.20
2022-08-21T05:23:31.592Z,17.20
2022-08-21T05:26:00.058Z,17.20
2022-08-21T05:28:28.111Z,17.20
2022-08-21T05:30:56.650Z,17.20
2022-08-21T05:33:24.944Z,17.20
2022-08-21T05:35:56.815Z,17.20
2022-08-21T05:38:28.348Z,17.20
2022-08-21T05:40:56.605Z,17.20
2022-08-21T05:43:24.877Z,17.20
2022-08-21T05:45:53.145Z,17.20
2022-08-21T05:48:25.402Z,17.20
2022-08-21T05:50:55.443Z,17.30
2022-08-21T05:53:27.416Z,17.30
2022-08-21T05:56:17.060Z,17.30
2022-08-21T05:58:46.128Z,17.40
2022-08-21T06:01:15.864Z,17.40
2022-08-21T06:03:44.433Z,17.40
2022-08-21T06:06:12.561Z,17.40
2022-08-21T06:08:42.091Z,17.40
2022-08-21T06:11:11.017Z,17.50
2022-08-21T06:13:42.992Z,17.50
2022-08-21T06:16:15.904Z,17.50
2022-08-21T06:18:45.682Z,17.50
2022-08-21T06:21:14.728Z,17.60
2022-08-21T06:23:44.715Z,17.60
2022-08-21T06:26:14.633Z,17.70
2022-08-21T06:28:44.197Z,17.70
2022-08-21T06:31:15.192Z,17.70
2022-08-21T06:33:45.571Z,17.80
2022-08-21T06:36:14.203Z,17.80
2022-08-21T06:38:50.974Z,17.80
2022-08-21T06:41:22.533Z,17.90
2022-08-21T06:43:55.214Z,17.90
2022-08-21T06:46:23.699Z,17.90
2022-08-21T06:48:51.774Z,18.00
2022-08-21T06:51:20.394Z,18.00
2022-08-21T06:53:50.536Z,18.00
2022-08-21T06:56:19.009Z,18.10
2022-08-21T06:58:47.294Z,18.10
2022-08-21T07:01:15.430Z,18.10
2022-08-21T07:03:45.081Z,18.20
2022-08-21T07:06:13.478Z,18.20
2022-08-21T07:08:41.548Z,18.30
2022-08-21T07:11:15.002Z,18.30
2022-08-21T07:13:43.062Z,18.40
2022-08-21T07:16:11.524Z,18.40
2022-08-21T07:18:39.848Z,18.50
2022-08-21T07:21:08.868Z,18.50
2022-08-21T07:23:39.757Z,18.60
2022-08-21T07:26:08.539Z,18.60
2022-08-21T07:28:38.203Z,18.70
2022-08-21T07:31:07.186Z,18.70
2022-08-21T07:33:37.064Z,18.80
2022-08-21T07:36:05.525Z,18.80
2022-08-21T07:38:33.664Z,18.80
2022-08-21T07:41:03.420Z,18.90
2022-08-21T07:43:31.894Z,19.00
2022-08-21T07:46:01.638Z,19.10
2022-08-21T07:48:29.657Z,19.10
2022-08-21T07:50:57.891Z,19.10
2022-08-21T07:53:25.909Z,19.20
2022-08-21T07:55:54.170Z,19.20
2022-08-21T07:58:22.322Z,19.30
2022-08-21T08:00:50.589Z,19.30
2022-08-21T08:03:20.580Z,19.40
2022-08-21T08:05:56.918Z,19.50
2022-08-21T08:08:25.079Z,19.50
2022-08-21T08:10:53.856Z,19.50
2022-08-21T08:13:21.867Z,19.60
2022-08-21T08:15:50.116Z,19.70
2022-08-21T08:18:19.688Z,19.80
2022-08-21T08:20:47.711Z,19.80
2022-08-21T08:23:17.096Z,19.80
2022-08-21T08:25:45.152Z,19.90
2022-08-21T08:28:17.459Z,19.90
2022-08-21T08:30:46.619Z,20.00
2022-08-21T08:33:15.316Z,20.00
2022-08-21T08:35:48.542Z,20.10
2022-08-21T08:38:19.788Z,20.10
2022-08-21T08:40:55.631Z,20.20
2022-08-21T08:43:23.893Z,20.20
2022-08-21T08:45:55.516Z,20.30
2022-08-21T08:48:38.520Z,20.30
2022-08-21T08:51:15.433Z,20.40
2022-08-21T08:53:53.105Z,20.50
2022-08-21T08:56:28.585Z,20.50
2022-08-21T08:58:59.626Z,20.60
2022-08-21T09:01:29.083Z,20.60
2022-08-21T09:03:58.768Z,20.70
2022-08-21T09:06:40.106Z,20.80
2022-08-21T09:09:20.657Z,20.80
2022-08-21T09:11:59.171Z,20.90
2022-08-21T09:14:38.927Z,20.90
2022-08-21T09:17:16.716Z,21.00
2022-08-21T09:19:56.922Z,21.10
2022-08-21T09:22:38.380Z,21.10
2022-08-21T09:25:14.283Z,21.20
2022-08-21T09:27:42.403Z,21.20
2022-08-21T09:30:11.839Z,21.30
2022-08-21T09:32:41.218Z,21.30
2022-08-21T09:35:12.768Z,21.30
2022-08-21T09:37:52.648Z,21.30
2022-08-21T09:40:31.694Z,21.40
2022-08-21T09:43:03.377Z,21.40
2022-08-21T09:45:34.085Z,21.40
2022-08-21T09:48:20.683Z,21.50
2022-08-21T09:50:50.035Z,21.50
2022-08-21T09:53:22.974Z,21.60
2022-08-21T09:56:12.266Z,21.70
2022-08-21T09:58:43.701Z,21.70
2022-08-21T10:01:19.276Z,21.80
2022-08-21T10:03:50.950Z,21.90
2022-08-21T10:06:27.769Z,22.00
2022-08-21T10:09:08.437Z,22.10
2022-08-21T10:11:36.921Z,22.20
2022-08-21T10:14:19.283Z,22.20
2022-08-21T10:17:00.583Z,22.30
2022-08-21T10:19:37.880Z,22.30
2022-08-21T10:22:18.859Z,22.40
2022-08-21T10:24:59.561Z,22.40
2022-08-21T10:27:37.288Z,22.40
2022-08-21T10:30:10.783Z,22.50
2022-08-21T10:32:50.405Z,22.50
2022-08-21T10:35:24.121Z,22.50
2022-08-21T10:38:28.199Z,22.60
2022-08-21T10:41:12.741Z,22.70
2022-08-21T10:43:49.773Z,22.80
2022-08-21T10:46:22.546Z,22.80
2022-08-21T10:48:56.975Z,22.80
2022-08-21T10:51:37.766Z,22.90
2022-08-21T10:54:19.092Z,22.90
2022-08-21T10:56:56.683Z,23.00
2022-08-21T10:59:36.624Z,23.10
2022-08-21T11:02:17.247Z,23.10
2022-08-21T11:04:55.029Z,23.10
2022-08-21T11:07:34.326Z,23.20
2022-08-21T11:10:10.269Z,23.20
2022-08-21T11:12:45.124Z,23.30
2022-08-21T11:15:35.895Z,23.40
2022-08-21T11:18:17.491Z,23.50
2022-08-21T11:20:51.155Z,23.50
2022-08-21T11:23:26.057Z,23.50
2022-08-21T11:26:00.408Z,23.60
2022-08-21T11:28:35.026Z,23.60
2022-08-21T11:31:14.953Z,23.60
2022-08-21T11:33:55.158Z,23.70
2022-08-21T11:36:39.090Z,23.80
2022-08-21T11:39:18.896Z,23.80
2022-08-21T11:41:56.041Z,23.90
2022-08-21T11:44:36.913Z,24.00
2022-08-21T11:47:14.882Z,24.00
2022-08-21T11:49:55.336Z,24.10
2022-08-21T11:52:28.291Z,24.20
2022-08-21T11:55:02.010Z,24.20
2022-08-21T11:57:36.038Z,24.30
2022-08-21T12:00:12.383Z,24.40
2022-08-21T12:02:45.517Z,24.50
2022-08-21T12:05:25.205Z,24.50
2022-08-21T12:08:04.212Z,24.50
2022-08-21T12:10:36.052Z,24.60
2022-08-21T12:13:14.724Z,24.70
2022-08-21T12:15:44.432Z,24.70
2022-08-21T12:18:25.488Z,24.70
2022-08-21T12:21:04.790Z,24.70
2022-08-21T12:23:37.838Z,24.70
2022-08-21T12:26:21.487Z,24.80
2022-08-21T12:28:50.135Z,24.90
2022-08-21T12:31:26.124Z,24.90
2022-08-21T12:33:58.675Z,24.90
2022-08-21T12:36:40.327Z,25.00
2022-08-21T12:39:16.013Z,25.10
2022-08-21T12:41:52.295Z,25.10
2022-08-21T12:44:29.769Z,25.20
2022-08-21T12:47:04.292Z,25.30
2022-08-21T12:49:37.013Z,25.30
2022-08-21T12:52:13.554Z,25.40
2022-08-21T12:54:47.274Z,25.50
2022-08-21T12:57:22.486Z,25.50
2022-08-21T12:59:56.127Z,25.60
2022-08-21T13:02:30.414Z,25.60
2022-08-21T13:04:59.682Z,25.70
2022-08-21T13:07:34.784Z,25.70
2022-08-21T13:10:06.681Z,25.80
2022-08-21T13:12:37.402Z,25.80
2022-08-21T13:15:09.111Z,25.90
2022-08-21T13:21:16.338Z,26.00
2022-08-21T13:23:45.053Z,26.00
2022-08-21T13:26:19.442Z,26.10
2022-08-21T13:28:48.603Z,26.10
2022-08-21T13:31:26.435Z,26.20
2022-08-21T13:33:57.210Z,26.30
2022-08-21T13:36:31.876Z,26.30
2022-08-21T13:39:00.671Z,26.40
2022-08-21T13:41:31.790Z,26.40
2022-08-21T13:44:02.771Z,26.50
2022-08-21T13:46:33.638Z,26.50
2022-08-21T13:49:03.702Z,26.70
2022-08-21T13:51:34.056Z,26.70
2022-08-21T13:54:02.197Z,26.80
2022-08-21T13:56:33.829Z,26.90
2022-08-21T13:59:07.258Z,27.00
2022-08-21T14:01:41.196Z,27.10
2022-08-21T14:04:21.504Z,27.20
2022-08-21T14:06:51.935Z,27.20
2022-08-21T14:09:28.882Z,27.30
2022-08-21T14:11:58.508Z,27.30
2022-08-21T14:14:30.126Z,27.30
2022-08-21T14:17:01.049Z,27.40
2022-08-21T14:19:49.093Z,27.40
2022-08-21T14:22:41.033Z,27.30
2022-08-21T14:25:12.447Z,27.40
2022-08-21T14:27:45.724Z,27.30
2022-08-21T14:30:21.043Z,27.40
2022-08-21T14:32:49.861Z,27.40
2022-08-21T14:35:18.800Z,27.40
2022-08-21T14:37:55.164Z,27.40
2022-08-21T14:40:25.590Z,27.40
2022-08-21T14:42:54.493Z,27.40
2022-08-21T14:45:28.258Z,27.50
2022-08-21T14:47:57.240Z,27.50
2022-08-21T14:50:28.067Z,27.40
2022-08-21T14:52:58.357Z,27.40
2022-08-21T14:55:27.284Z,27.30
2022-08-21T14:57:57.544Z,27.30
2022-08-21T15:00:35.842Z,27.30
2022-08-21T15:03:05.164Z,27.30
2022-08-21T15:05:34.333Z,27.30
2022-08-21T15:08:05.241Z,27.30
2022-08-21T15:10:44.149Z,27.20
2022-08-21T15:13:20.835Z,27.20
2022-08-21T15:15:51.883Z,27.00
2022-08-21T15:18:20.318Z,26.90
2022-08-21T15:20:48.417Z,26.80
2022-08-21T15:23:18.305Z,26.70
2022-08-21T15:25:48.843Z,26.60
2022-08-21T15:28:19.210Z,26.60
2022-08-21T15:30:47.872Z,26.50
2022-08-21T15:33:16.414Z,26.40
2022-08-21T15:35:44.921Z,26.30
2022-08-21T15:38:13.274Z,26.30
2022-08-21T15:40:51.598Z,26.20
2022-08-21T15:43:29.914Z,26.10
2022-08-21T15:46:00.255Z,26.00
2022-08-21T15:48:28.849Z,25.90
2022-08-21T15:50:57.079Z,25.90
2022-08-21T15:53:25.343Z,25.80
2022-08-21T15:55:56.251Z,25.70
2022-08-21T15:58:24.833Z,25.60
2022-08-21T16:00:53.234Z,25.60
2022-08-21T16:03:22.960Z,25.50
2022-08-21T16:05:53.461Z,25.50
2022-08-21T16:08:22.114Z,25.40
2022-08-21T16:10:50.864Z,25.40
2022-08-21T16:13:25.360Z,25.40
2022-08-21T16:15:54.090Z,25.40
2022-08-21T16:18:24.279Z,25.40
2022-08-21T16:20:52.555Z,25.40
2022-08-21T16:23:21.687Z,25.40
2022-08-21T16:25:50.247Z,25.40
2022-08-21T16:28:22.207Z,25.40
2022-08-21T16:30:52.064Z,25.30
2022-08-21T16:33:26.849Z,25.30
2022-08-21T16:35:55.514Z,25.40
2022-08-21T16:38:24.030Z,25.40
2022-08-21T16:40:53.173Z,25.30
2022-08-21T16:43:25.626Z,25.40
2022-08-21T16:45:54.662Z,25.30
2022-08-21T16:48:26.965Z,25.40
2022-08-21T16:50:56.142Z,25.30
2022-08-21T16:53:26.603Z,25.30
2022-08-21T16:55:55.084Z,25.20
2022-08-21T16:58:29.441Z,25.10
2022-08-21T17:00:58.794Z,25.10
2022-08-21T17:03:32.584Z,25.10
2022-08-21T17:06:00.636Z,24.90
2022-08-21T17:08:28.906Z,24.90
2022-08-21T17:10:57.904Z,24.80
2022-08-21T17:13:28.365Z,24.70
2022-08-21T17:15:56.778Z,24.60
2022-08-21T17:18:26.402Z,24.60
2022-08-21T17:20:55.092Z,24.60
2022-08-21T17:23:23.261Z,24.50
2022-08-21T17:25:54.206Z,24.50
2022-08-21T17:28:25.502Z,24.40
2022-08-21T17:30:58.342Z,24.40
2022-08-21T17:33:30.844Z,24.30
2022-08-21T17:35:58.973Z,24.20
2022-08-21T17:38:27.936Z,24.20
2022-08-21T17:40:57.460Z,24.10
2022-08-21T17:43:26.766Z,24.00
2022-08-21T17:45:56.347Z,24.00
2022-08-21T17:48:26.913Z,23.90
2022-08-21T17:54:43.075Z,23.90
2022-08-21T17:57:19.457Z,23.80
2022-08-21T17:59:56.467Z,23.70
2022-08-21T18:02:30.637Z,23.60
2022-08-21T18:04:59.031Z,23.60
2022-08-21T18:07:32.578Z,23.50
2022-08-21T18:10:04.364Z,23.50
2022-08-21T18:12:33.244Z,23.40
2022-08-21T18:15:02.262Z,23.50
2022-08-21T18:17:33.757Z,23.40
2022-08-21T18:20:02.414Z,23.40
2022-08-21T18:22:30.501Z,23.40
2022-08-21T18:25:00.237Z,23.40
2022-08-21T18:27:29.831Z,23.30
2022-08-21T18:30:01.341Z,23.30
2022-08-21T18:32:32.337Z,23.30
2022-08-21T18:35:02.967Z,23.30
2022-08-21T18:37:32.009Z,23.30
2022-08-21T18:40:00.461Z,23.20
2022-08-21T18:42:32.292Z,23.20
2022-08-21T18:45:03.329Z,23.20
2022-08-21T18:47:37.463Z,23.10
2022-08-21T18:50:05.698Z,23.10
2022-08-21T18:52:51.122Z,23.00
2022-08-21T18:55:24.485Z,23.00
2022-08-21T18:57:53.196Z,22.90
2022-08-21T19:00:24.830Z,22.90
2022-08-21T19:02:54.750Z,22.90
2022-08-21T19:05:24.146Z,22.90
2022-08-21T19:07:53.452Z,22.90
2022-08-21T19:10:28.340Z,22.90
2022-08-21T19:12:58.446Z,22.80
2022-08-21T19:15:26.996Z,22.80
2022-08-21T19:17:59.168Z,22.80
2022-08-21T19:20:30.742Z,22.70
2022-08-21T19:22:58.858Z,22.70
2022-08-21T19:25:33.813Z,22.70
2022-08-21T19:28:03.867Z,22.70
2022-08-21T19:30:40.709Z,22.70
2022-08-21T19:36:06.985Z,22.60
2022-08-21T19:38:35.832Z,22.50
2022-08-21T19:41:08.403Z,22.50
2022-08-21T19:43:42.685Z,22.50
2022-08-21T19:46:11.467Z,22.40
2022-08-21T19:48:41.253Z,22.40
2022-08-21T19:51:15.188Z,22.40
2022-08-21T19:53:43.267Z,22.40
2022-08-21T19:56:15.603Z,22.40
2022-08-21T19:58:47.320Z,22.30
2022-08-21T20:01:19.925Z,22.30
2022-08-21T20:03:54.270Z,22.20
2022-08-21T20:06:24.389Z,22.20
2022-08-21T20:08:54.721Z,22.20
2022-08-21T20:11:27.309Z,22.20
2022-08-21T20:13:56.144Z,22.20
2022-08-21T20:16:24.167Z,22.10
2022-08-21T20:18:55.449Z,22.10
2022-08-21T20:21:23.760Z,22.10
2022-08-21T20:23:51.833Z,22.10
2022-08-21T20:26:20.246Z,22.00
2022-08-21T20:28:50.511Z,22.00
2022-08-21T20:31:21.491Z,22.00
2022-08-21T20:33:51.284Z,22.00
2022-08-21T20:36:22.608Z,22.00
2022-08-21T20:38:52.135Z,22.00
2022-08-21T20:41:30.455Z,21.90
2022-08-21T20:44:00.335Z,21.90
2022-08-21T20:46:31.058Z,21.90
2022-08-21T20:49:00.323Z,21.90
2022-08-21T20:51:33.256Z,21.80
2022-08-21T20:54:06.614Z,21.80
2022-08-21T20:56:42.225Z,21.80
2022-08-21T20:59:20.747Z,21.80
2022-08-21T21:01:49.933Z,21.70
2022-08-21T21:04:31.444Z,21.70
2022-08-21T21:07:02.892Z,21.70
2022-08-21T21:09:41.041Z,21.70
2022-08-21T21:12:16.298Z,21.60
2022-08-21T21:14:48.157Z,21.60
2022-08-21T21:17:28.223Z,21.60
2022-08-21T21:20:01.266Z,21.60
2022-08-21T21:22:37.131Z,21.50
2022-08-21T21:25:12.330Z,21.50
2022-08-21T21:27:48.933Z,21.40
2022-08-21T21:30:21.418Z,21.40
2022-08-21T21:32:49.949Z,21.40
2022-08-21T21:35:32.243Z,21.30
2022-08-21T21:38:18.560Z,21.30
2022-08-21T21:40:57.867Z,21.30
2022-08-21T21:43:41.122Z,21.30
2022-08-21T21:46:22.088Z,21.20
2022-08-21T21:49:01.146Z,21.20
2022-08-21T21:51:44.899Z,21.20
2022-08-21T21:54:19.855Z,21.20
2022-08-21T21:56:56.954Z,21.10
2022-08-21T21:59:39.662Z,21.00
2022-08-21T22:02:15.947Z,21.00
2022-08-21T22:04:56.481Z,21.00
2022-08-21T22:07:34.334Z,21.00
2022-08-21T22:10:30.043Z,21.00
2022-08-21T22:13:09.908Z,21.00
2022-08-21T22:18:33.981Z,20.90
2022-08-21T22:21:05.581Z,20.90
2022-08-21T22:23:39.543Z,20.90
2022-08-21T22:26:12.439Z,20.80
2022-08-21T22:28:43.766Z,20.80
2022-08-21T22:31:19.581Z,20.80
2022-08-21T22:34:05.677Z,20.80
2022-08-21T22:36:38.490Z,20.80
2022-08-21T22:39:17.465Z,20.80
2022-08-21T22:41:48.443Z,20.70
2022-08-21T22:44:22.707Z,20.70
2022-08-21T22:46:55.458Z,20.70
2022-08-21T22:49:33.454Z,20.70
2022-08-21T22:52:11.824Z,20.70
2022-08-21T22:54:43.388Z,20.70
2022-08-21T22:57:24.748Z,20.70
2022-08-21T22:59:57.343Z,20.60
2022-08-21T23:02:35.831Z,20.60
2022-08-21T23:05:10.474Z,20.70
2022-08-21T23:10:30.825Z,20.60
2022-08-21T23:13:09.121Z,20.50
2022-08-21T23:16:00.692Z,20.60
2022-08-21T23:18:38.667Z,20.50
2022-08-21T23:21:17.114Z,20.50
2022-08-21T23:24:01.563Z,20.50
2022-08-21T23:26:37.530Z,20.50
2022-08-21T23:29:24.861Z,20.50
2022-08-21T23:32:03.729Z,20.50
2022-08-21T23:34:42.325Z,20.40
2022-08-21T23:40:50.661Z,20.50
2022-08-21T23:43:33.149Z,20.40
2022-08-21T23:46:17.257Z,20.40
2022-08-21T23:48:55.298Z,20.40
2022-08-21T23:51:33.780Z,20.30
2022-08-21T23:54:09.490Z,20.30
2022-08-21T23:56:53.039Z,20.30
2022-08-21T23:59:43.747Z,20.20
